Etusivu
METAR-TAF:

METAR-TAF

Lentoasemat :

Córdoba, Argentiina

Leveyspiiri: 31-19S, Pituuspiiri: 064-13W, korkeus merenpinnasta: 484 m

Tämänhetkinen sää

Tämä raportti tehtiin 47 minuuttia sitten, kello 06.00 UTC
Tuuli 6 kn pohjoisen/luoteesta
Lämpötila 2°C
Kosteus 40%
Ilmanpaine 1018 hPa
Näkyvyys 10 km tai enemmän
ei pilviä alle 1500 m:ssä eikä cumulonimbus-pilviä

METAR: SACO 120600Z 34006KT CAVOK 02/M10 Q1018 NOSIG

Aika: 03:47 (06:47 UTC)

Sääennuste

Tämä raportti tehtiin 1 tunti ja 47 minuuttia sitten, kello 05.00 UTC
Ennuste voimassa 12. päivästä klo 06 UTC - 13. päivään klo 06 UTC
Tuuli 5 kn pohjoisesta/koillisesta
Näkyvyys 10 km tai enemmän
ei pilviä alle 1500 m:ssä eikä cumulonimbus-pilviä
Tulossa
12. päivästä klo 12 UTC - 12. päivään klo 14 UTC
Tuuli 10 kn pohjoisesta/koillisesta
Näkyvyys 10 km tai enemmän
Hajanaisia pilviä 3000 ft:n korkeudessa

TAF: SACO 120500Z 1206/1306 02005KT CAVOK TX17/1218Z TN02/1210Z BECMG 1212/1214 02010KT 9999 SCT030

Säähavainnot ja -ennusteet yli 4000 lentoasemalta (METAR- ja TAF-raportit).

Käytössä olevat sääasemat on merkitty karttaan keltaisilla ja punaisilla pisteillä.

Aseta hiiri pisteen päälle nähdäksesi sääaseman nimen.

Klikkaa sitten nähdäksesi säähavainnot ja -ennusteet.

Kartan vaihtaminen: klikkaa mustalla rastilla varustettuja vihreitä pisteitä, niin voit zoomata sisään; viivalla varustettua vihreää pistettä, niin voit zoomata ulos tai vihreitä nuolia, niin pääset viereisille kartoille.


METAR-TAF: